createdAt,value
2017-07-22T00:00:32.120Z,98159.44
2017-07-22T00:03:01.415Z,98165.23
2017-07-22T00:05:30.848Z,98165.91
2017-07-22T00:08:00.301Z,98169.30
2017-07-22T00:10:29.747Z,98167.39
2017-07-22T00:12:59.181Z,98162.33
2017-07-22T00:15:28.623Z,98155.11
2017-07-22T00:17:58.065Z,98154.93
2017-07-22T00:20:27.520Z,98151.64
2017-07-22T00:22:57.014Z,98154.47
2017-07-22T00:25:26.493Z,98153.00
2017-07-22T00:27:55.926Z,98149.80
2017-07-22T00:30:25.385Z,98150.13
2017-07-22T00:32:54.840Z,98153.58
2017-07-22T00:35:24.313Z,98159.13
2017-07-22T00:37:53.760Z,98159.28
2017-07-22T00:40:23.229Z,98150.20
2017-07-22T00:42:52.505Z,98151.40
2017-07-22T00:45:22.000Z,98151.29
2017-07-22T00:47:51.441Z,98156.19
2017-07-22T00:50:20.956Z,98157.33
2017-07-22T00:52:50.516Z,98157.22
2017-07-22T00:55:20.038Z,98148.19
2017-07-22T00:57:49.539Z,98149.59
2017-07-22T01:00:18.993Z,98144.36
2017-07-22T01:02:48.257Z,98143.31
2017-07-22T01:05:17.741Z,98133.58
2017-07-22T01:07:47.171Z,98135.98
2017-07-22T01:10:16.669Z,98126.41
2017-07-22T01:12:46.098Z,98123.66
2017-07-22T01:15:15.584Z,98136.89
2017-07-22T01:17:44.973Z,98117.36
2017-07-22T01:20:14.455Z,98115.19
2017-07-22T01:22:43.715Z,98106.90
2017-07-22T01:25:13.210Z,98110.34
2017-07-22T01:27:42.640Z,98112.32
2017-07-22T01:30:12.121Z,98107.34
2017-07-22T01:32:41.568Z,98099.00
2017-07-22T01:35:11.075Z,98101.40
2017-07-22T01:37:40.515Z,98098.94
2017-07-22T01:40:09.984Z,98097.73
2017-07-22T01:42:39.446Z,98097.88
2017-07-22T01:45:08.931Z,98096.05
2017-07-22T01:47:38.381Z,98100.64
2017-07-22T01:50:07.864Z,98111.93
2017-07-22T01:52:37.296Z,98112.41
2017-07-22T01:55:06.798Z,98112.82
2017-07-22T01:57:36.416Z,98110.97
2017-07-22T02:00:05.883Z,98111.86
2017-07-22T02:02:35.143Z,98110.78
2017-07-22T02:05:04.620Z,98121.06
2017-07-22T02:07:34.069Z,98117.58
2017-07-22T02:10:03.599Z,98119.78
2017-07-22T02:12:33.072Z,98111.65
2017-07-22T02:15:02.538Z,98110.41
2017-07-22T02:17:31.976Z,98115.22
2017-07-22T02:20:01.438Z,98111.10
2017-07-22T02:22:30.704Z,98116.05
2017-07-22T02:25:00.162Z,98118.75
2017-07-22T02:27:29.612Z,98123.23
2017-07-22T02:29:59.055Z,98125.52
2017-07-22T02:32:28.496Z,98128.63
2017-07-22T02:34:57.937Z,98132.36
2017-07-22T02:37:27.392Z,98133.03
2017-07-22T02:39:56.836Z,98145.20
2017-07-22T02:42:26.291Z,98146.53
2017-07-22T02:44:55.745Z,98159.06
2017-07-22T02:47:25.168Z,98178.11
2017-07-22T02:49:54.635Z,98222.70
2017-07-22T02:52:24.061Z,98262.30
2017-07-22T02:54:53.516Z,98239.27
2017-07-22T02:57:22.965Z,98248.78
2017-07-22T02:59:52.409Z,98298.18
2017-07-22T03:02:21.861Z,98268.88
2017-07-22T03:04:51.332Z,98289.20
2017-07-22T03:07:20.764Z,98285.56
2017-07-22T03:09:50.200Z,98278.91
2017-07-22T03:12:19.663Z,98305.70
2017-07-22T03:14:49.167Z,98308.73
2017-07-22T03:17:18.616Z,98302.61
2017-07-22T03:19:48.054Z,98327.99
2017-07-22T03:22:17.554Z,98316.59
2017-07-22T03:24:47.014Z,98327.32
2017-07-22T03:27:16.454Z,98321.82
2017-07-22T03:29:45.892Z,98321.34
2017-07-22T03:32:15.353Z,98310.72
2017-07-22T03:34:44.805Z,98314.85
2017-07-22T03:37:14.255Z,98315.14
2017-07-22T03:39:43.774Z,98322.38
2017-07-22T03:42:13.224Z,98329.34
2017-07-22T03:44:42.685Z,98330.30
2017-07-22T03:47:12.136Z,98327.98
2017-07-22T03:49:41.607Z,98329.12
2017-07-22T03:52:11.050Z,98336.09
2017-07-22T03:54:40.525Z,98334.72
2017-07-22T03:57:09.969Z,98337.05
2017-07-22T03:59:39.409Z,98331.84
2017-07-22T04:02:08.696Z,98335.06
2017-07-22T04:04:38.184Z,98333.00
2017-07-22T04:07:07.624Z,98347.27
2017-07-22T04:09:37.070Z,98352.44
2017-07-22T04:12:06.511Z,98349.34
2017-07-22T04:14:35.868Z,98345.70
2017-07-22T04:17:05.299Z,98342.60
2017-07-22T04:19:34.584Z,98345.59
2017-07-22T04:22:04.022Z,98357.37
2017-07-22T04:24:33.487Z,98359.17
2017-07-22T04:27:02.920Z,98360.20
2017-07-22T04:29:32.390Z,98350.64
2017-07-22T04:32:01.854Z,98362.01
2017-07-22T04:34:31.300Z,98358.34
2017-07-22T04:37:00.601Z,98365.95
2017-07-22T04:39:30.068Z,98374.61
2017-07-22T04:41:59.524Z,98384.72
2017-07-22T04:44:29.123Z,98396.12
2017-07-22T04:46:58.569Z,98396.39
2017-07-22T04:49:28.029Z,98400.25
2017-07-22T04:51:57.474Z,98402.83
2017-07-22T04:54:27.078Z,98405.53
2017-07-22T04:56:56.527Z,98408.84
2017-07-22T04:59:26.679Z,98410.21
2017-07-22T05:01:56.128Z,98417.70
2017-07-22T05:04:25.654Z,98411.27
2017-07-22T05:06:55.082Z,98427.27
2017-07-22T05:09:24.541Z,98426.67
2017-07-22T05:11:53.990Z,98434.18
2017-07-22T05:14:23.440Z,98431.08
2017-07-22T05:16:52.900Z,98432.06
2017-07-22T05:19:22.344Z,98432.59
2017-07-22T05:21:51.804Z,98437.37
2017-07-22T05:24:21.248Z,98432.48
2017-07-22T05:26:50.708Z,98430.28
2017-07-22T05:29:20.137Z,98431.50
2017-07-22T05:31:49.577Z,98437.65
2017-07-22T05:34:19.028Z,98439.58
2017-07-22T05:36:48.472Z,98443.71
2017-07-22T05:39:17.937Z,98443.02
2017-07-22T05:41:47.373Z,98450.26
2017-07-22T05:44:16.804Z,98450.52
2017-07-22T05:46:47.149Z,98453.66
2017-07-22T05:49:16.585Z,98449.80
2017-07-22T05:51:46.023Z,98444.15
2017-07-22T05:54:15.647Z,98448.81
2017-07-22T05:56:45.097Z,98452.45
2017-07-22T05:59:14.540Z,98451.96
2017-07-22T06:01:44.009Z,98453.28
2017-07-22T06:04:13.466Z,98458.42
2017-07-22T06:06:43.673Z,98449.00
2017-07-22T06:09:13.118Z,98460.44
2017-07-22T06:11:42.557Z,98461.95
2017-07-22T06:14:11.996Z,98462.02
2017-07-22T06:16:41.432Z,98467.47
2017-07-22T06:19:11.012Z,98472.95
2017-07-22T06:21:40.453Z,98470.27
2017-07-22T06:24:09.909Z,98475.58
2017-07-22T06:26:39.351Z,98469.59
2017-07-22T06:29:08.798Z,98471.47
2017-07-22T06:31:38.241Z,98474.36
2017-07-22T06:34:07.675Z,98470.94
2017-07-22T06:36:37.156Z,98474.18
2017-07-22T06:39:06.606Z,98477.08
2017-07-22T06:41:36.032Z,98484.79
2017-07-22T06:44:05.481Z,98481.47
2017-07-22T06:46:36.605Z,98488.26
2017-07-22T06:49:06.052Z,98494.61
2017-07-22T06:51:35.486Z,98501.36
2017-07-22T06:54:04.930Z,98490.39
2017-07-22T06:56:34.382Z,98494.11
2017-07-22T06:59:03.824Z,98489.16
2017-07-22T07:01:33.263Z,98502.23
2017-07-22T07:04:02.736Z,98513.48
2017-07-22T07:06:32.180Z,98501.55
2017-07-22T07:09:01.625Z,98513.78
2017-07-22T07:11:30.900Z,98508.20
2017-07-22T07:14:00.340Z,98506.05
2017-07-22T07:16:29.804Z,98502.23
2017-07-22T07:18:59.245Z,98505.91
2017-07-22T07:21:28.697Z,98514.27
2017-07-22T07:23:58.145Z,98505.50
2017-07-22T07:26:27.586Z,98508.24
2017-07-22T07:28:57.025Z,98512.19
2017-07-22T07:31:26.492Z,98509.63
2017-07-22T07:33:55.957Z,98508.69
2017-07-22T07:36:25.408Z,98513.09
2017-07-22T07:38:54.992Z,98520.28
2017-07-22T07:41:24.440Z,98524.91
2017-07-22T07:43:53.902Z,98523.64
2017-07-22T07:46:23.349Z,98523.42
2017-07-22T07:48:52.805Z,98524.64
2017-07-22T07:51:22.237Z,98530.45
2017-07-22T07:53:51.699Z,98521.33
2017-07-22T07:56:21.169Z,98524.30
2017-07-22T07:58:50.630Z,98521.07
2017-07-22T08:01:20.076Z,98525.25
2017-07-22T08:03:49.537Z,98525.81
2017-07-22T08:06:18.986Z,98529.23
2017-07-22T08:08:48.437Z,98529.19
2017-07-22T08:11:17.883Z,98523.98
2017-07-22T08:13:47.328Z,98520.33
2017-07-22T08:16:16.795Z,98524.59
2017-07-22T08:18:46.220Z,98527.36
2017-07-22T08:21:15.670Z,98532.63
2017-07-22T08:23:45.116Z,98525.45
2017-07-22T08:26:14.567Z,98529.14
2017-07-22T08:28:44.012Z,98522.19
2017-07-22T08:31:13.460Z,98529.22
2017-07-22T08:33:42.931Z,98532.97
2017-07-22T08:36:12.373Z,98532.19
2017-07-22T08:38:41.821Z,98541.38
2017-07-22T08:41:11.300Z,98535.47
2017-07-22T08:43:40.757Z,98538.50
2017-07-22T08:46:10.209Z,98542.39
2017-07-22T08:48:39.636Z,98533.19
2017-07-22T08:51:09.093Z,98534.28
2017-07-22T08:53:38.545Z,98537.85
2017-07-22T08:56:07.978Z,98536.58
2017-07-22T08:58:37.468Z,98550.30
2017-07-22T09:01:06.924Z,98541.03
2017-07-22T09:03:36.380Z,98536.53
2017-07-22T09:06:05.840Z,98537.18
2017-07-22T09:08:35.280Z,98548.02
2017-07-22T09:11:04.732Z,98536.98
2017-07-22T09:13:34.174Z,98541.72
2017-07-22T09:16:03.601Z,98541.95
2017-07-22T09:18:33.063Z,98542.58
2017-07-22T09:21:02.488Z,98542.66
2017-07-22T09:23:31.971Z,98539.73
2017-07-22T09:26:01.427Z,98545.08
2017-07-22T09:28:30.863Z,98545.89
2017-07-22T09:31:00.316Z,98550.57
2017-07-22T09:33:29.830Z,98543.50
2017-07-22T09:35:59.269Z,98541.16
2017-07-22T09:38:28.788Z,98540.79
2017-07-22T09:40:58.236Z,98545.89
2017-07-22T09:43:27.697Z,98545.57
2017-07-22T09:45:57.150Z,98549.98
2017-07-22T09:48:26.648Z,98545.27
2017-07-22T09:50:56.097Z,98562.63
2017-07-22T09:53:25.569Z,98557.70
2017-07-22T09:55:55.001Z,98551.77
2017-07-22T09:58:24.457Z,98547.56
2017-07-22T10:00:53.893Z,98549.26
2017-07-22T10:03:23.342Z,98556.92
2017-07-22T10:05:52.773Z,98546.89
2017-07-22T10:08:22.274Z,98552.77
2017-07-22T10:10:51.738Z,98555.20
2017-07-22T10:13:21.153Z,98561.34
2017-07-22T10:15:50.600Z,98566.77
2017-07-22T10:18:20.043Z,98567.27
2017-07-22T10:20:49.492Z,98557.92
2017-07-22T10:23:18.954Z,98563.10
2017-07-22T10:25:48.390Z,98567.78
2017-07-22T10:28:17.828Z,98568.73
2017-07-22T10:30:47.275Z,98572.08
2017-07-22T10:33:16.752Z,98563.91
2017-07-22T10:35:46.183Z,98561.22
2017-07-22T10:38:15.636Z,98562.50
2017-07-22T10:40:45.082Z,98561.11
2017-07-22T10:43:14.529Z,98563.50
2017-07-22T10:45:43.800Z,98559.19
2017-07-22T10:48:13.250Z,98551.22
2017-07-22T10:50:42.677Z,98555.49
2017-07-22T10:53:12.124Z,98550.48
2017-07-22T10:55:41.580Z,98559.09
2017-07-22T10:58:11.050Z,98557.79
2017-07-22T11:00:40.480Z,98560.81
2017-07-22T11:03:09.960Z,98565.63
2017-07-22T11:05:39.419Z,98572.65
2017-07-22T11:08:08.883Z,98573.84
2017-07-22T11:10:38.322Z,98586.37
2017-07-22T11:13:07.758Z,98591.52
2017-07-22T11:15:37.214Z,98589.57
2017-07-22T11:18:06.657Z,98589.91
2017-07-22T11:20:36.099Z,98589.34
2017-07-22T11:23:05.548Z,98587.64
2017-07-22T11:25:34.980Z,98581.72
2017-07-22T11:28:04.433Z,98583.81
2017-07-22T11:30:34.002Z,98583.89
2017-07-22T11:33:03.440Z,98579.30
2017-07-22T11:35:32.911Z,98574.74
2017-07-22T11:38:02.371Z,98587.66
2017-07-22T11:40:31.807Z,98569.08
2017-07-22T11:43:01.264Z,98576.63
2017-07-22T11:45:30.697Z,98573.52
2017-07-22T11:48:00.149Z,98574.33
2017-07-22T11:50:29.644Z,98563.13
2017-07-22T11:52:59.302Z,98565.27
2017-07-22T11:55:28.740Z,98570.99
2017-07-22T11:57:58.268Z,98569.23
2017-07-22T12:00:27.726Z,98566.70
2017-07-22T12:02:57.198Z,98570.11
2017-07-22T12:05:26.683Z,98562.79
2017-07-22T12:07:56.111Z,98558.64
2017-07-22T12:10:25.554Z,98553.27
2017-07-22T12:12:55.006Z,98557.67
2017-07-22T12:15:24.444Z,98553.97
2017-07-22T12:17:53.879Z,98548.67
2017-07-22T12:20:23.368Z,98550.47
2017-07-22T12:22:52.816Z,98551.81
2017-07-22T12:25:22.324Z,98553.88
2017-07-22T12:27:51.746Z,98552.25
2017-07-22T12:30:21.247Z,98549.59
2017-07-22T12:32:50.680Z,98551.60
2017-07-22T12:35:20.250Z,98549.53
2017-07-22T12:37:49.701Z,98548.57
2017-07-22T12:40:19.224Z,98550.80
2017-07-22T12:42:48.669Z,98549.39
2017-07-22T12:45:18.147Z,98536.41
2017-07-22T12:47:47.581Z,98538.27
2017-07-22T12:50:17.068Z,98530.57
2017-07-22T12:52:46.505Z,98530.67
2017-07-22T12:55:15.978Z,98531.72
2017-07-22T12:57:45.420Z,98532.91
2017-07-22T13:00:14.906Z,98526.47
2017-07-22T13:02:44.337Z,98527.77
2017-07-22T13:05:13.818Z,98526.78
2017-07-22T13:07:43.259Z,98522.48
2017-07-22T13:10:12.803Z,98523.73
2017-07-22T13:12:42.262Z,98514.04
2017-07-22T13:15:11.846Z,98502.66
2017-07-22T13:17:41.328Z,98506.47
2017-07-22T13:20:10.840Z,98497.64
2017-07-22T13:22:40.317Z,98497.92
2017-07-22T13:25:09.772Z,98495.41
2017-07-22T13:27:39.230Z,98502.22
2017-07-22T13:30:09.324Z,98501.89
2017-07-22T13:32:38.770Z,98494.31
2017-07-22T13:35:08.269Z,98500.50
2017-07-22T13:37:37.721Z,98490.48
2017-07-22T13:40:07.330Z,98490.73
2017-07-22T13:42:36.800Z,98490.13
2017-07-22T13:45:06.285Z,98485.98
2017-07-22T13:47:36.202Z,98481.60
2017-07-22T13:50:05.716Z,98480.08
2017-07-22T13:52:35.157Z,98482.10
2017-07-22T13:55:04.642Z,98474.19
2017-07-22T13:57:34.083Z,98476.03
2017-07-22T14:00:03.605Z,98473.23
2017-07-22T14:02:33.059Z,98476.30
2017-07-22T14:05:02.549Z,98471.17
2017-07-22T14:07:31.982Z,98459.51
2017-07-22T14:10:01.453Z,98459.57
2017-07-22T14:12:30.884Z,98463.95
2017-07-22T14:15:00.333Z,98463.05
2017-07-22T14:17:29.788Z,98464.53
2017-07-22T14:19:59.219Z,98461.98
2017-07-22T14:22:28.660Z,98457.72
2017-07-22T14:24:58.165Z,98472.52
2017-07-22T14:27:27.608Z,98456.36
2017-07-22T14:29:57.111Z,98452.21
2017-07-22T14:32:26.579Z,98453.27
2017-07-22T14:34:56.061Z,98452.98
2017-07-22T14:37:25.549Z,98453.52
2017-07-22T14:39:54.987Z,98448.39
2017-07-22T14:42:24.422Z,98447.92
2017-07-22T14:44:53.914Z,98454.95
2017-07-22T14:47:24.053Z,98444.23
2017-07-22T14:49:53.569Z,98439.00
2017-07-22T14:52:23.008Z,98447.77
2017-07-22T14:54:52.460Z,98443.38
2017-07-22T14:57:21.907Z,98441.41
2017-07-22T14:59:51.381Z,98430.92
2017-07-22T15:02:20.864Z,98438.99
2017-07-22T15:04:50.320Z,98438.39
2017-07-22T15:07:19.860Z,98428.23
2017-07-22T15:09:49.517Z,98428.52
2017-07-22T15:12:18.957Z,98432.71
2017-07-22T15:14:48.396Z,98423.08
2017-07-22T15:17:17.882Z,98420.47
2017-07-22T15:19:47.329Z,98424.49
2017-07-22T15:22:16.769Z,98419.30
2017-07-22T15:24:46.205Z,98416.22
2017-07-22T15:27:15.644Z,98407.75
2017-07-22T15:29:45.110Z,98415.37
2017-07-22T15:32:14.553Z,98414.81
2017-07-22T15:34:43.984Z,98411.53
2017-07-22T15:37:13.445Z,98405.34
2017-07-22T15:39:42.895Z,98401.14
2017-07-22T15:42:12.331Z,98397.88
2017-07-22T15:44:41.822Z,98401.92
2017-07-22T15:47:11.207Z,98399.72
2017-07-22T15:49:40.469Z,98397.88
2017-07-22T15:52:09.908Z,98400.77
2017-07-22T15:54:39.367Z,98404.11
2017-07-22T15:57:08.820Z,98406.63
2017-07-22T15:59:38.262Z,98407.63
2017-07-22T16:02:07.705Z,98402.73
2017-07-22T16:04:37.160Z,98409.62
2017-07-22T16:07:06.605Z,98406.58
2017-07-22T16:09:36.073Z,98409.70
2017-07-22T16:12:05.526Z,98405.57
2017-07-22T16:14:34.966Z,98407.23
2017-07-22T16:17:04.424Z,98400.73
2017-07-22T16:19:33.853Z,98400.46
2017-07-22T16:22:03.390Z,98410.89
2017-07-22T16:24:32.922Z,98413.22
2017-07-22T16:27:02.426Z,98405.42
2017-07-22T16:29:31.881Z,98406.56
2017-07-22T16:32:01.319Z,98403.56
2017-07-22T16:34:30.768Z,98406.19
2017-07-22T16:37:00.226Z,98406.80
2017-07-22T16:39:29.677Z,98408.09
2017-07-22T16:41:59.132Z,98411.02
2017-07-22T16:44:28.564Z,98411.10
2017-07-22T16:46:58.033Z,98407.91
2017-07-22T16:49:27.464Z,98416.34
2017-07-22T16:51:56.911Z,98419.31
2017-07-22T16:54:26.353Z,98419.77
2017-07-22T16:56:55.809Z,98419.09
2017-07-22T16:59:26.083Z,98418.05
2017-07-22T17:01:55.541Z,98410.89
2017-07-22T17:04:24.992Z,98417.77
2017-07-22T17:06:54.456Z,98417.14
2017-07-22T17:09:23.888Z,98420.56
2017-07-22T17:11:53.348Z,98424.59
2017-07-22T17:14:22.804Z,98415.93
2017-07-22T17:16:52.269Z,98425.80
2017-07-22T17:19:21.702Z,98418.13
2017-07-22T17:21:51.158Z,98420.64
2017-07-22T17:24:20.594Z,98415.60
2017-07-22T17:26:50.027Z,98423.66
2017-07-22T17:29:19.484Z,98423.03
2017-07-22T17:31:48.947Z,98417.83
2017-07-22T17:34:18.380Z,98423.59
2017-07-22T17:36:47.866Z,98429.67
2017-07-22T17:39:17.312Z,98432.03
2017-07-22T17:41:46.761Z,98427.02
2017-07-22T17:44:16.205Z,98431.11
2017-07-22T17:46:45.665Z,98438.72
2017-07-22T17:49:15.091Z,98429.72
2017-07-22T17:51:44.546Z,98434.36
2017-07-22T17:54:13.999Z,98439.70
2017-07-22T17:56:43.454Z,98433.67
2017-07-22T17:59:12.912Z,98430.23
2017-07-22T18:01:42.490Z,98433.43
2017-07-22T18:04:11.957Z,98434.19
2017-07-22T18:06:41.398Z,98427.67
2017-07-22T18:09:10.838Z,98430.45
2017-07-22T18:11:40.379Z,98425.16
2017-07-22T18:14:09.815Z,98429.32
2017-07-22T18:16:39.263Z,98422.56
2017-07-22T18:19:08.730Z,98419.80
2017-07-22T18:21:38.292Z,98432.90
2017-07-22T18:24:07.728Z,98429.28
2017-07-22T18:26:37.910Z,98431.33
2017-07-22T18:29:08.268Z,98426.47
2017-07-22T18:31:37.996Z,98425.42
2017-07-22T18:34:09.057Z,98422.33
2017-07-22T18:36:39.160Z,98419.58
2017-07-22T18:39:09.284Z,98416.19
2017-07-22T18:41:39.425Z,98414.73
2017-07-22T18:44:09.655Z,98415.97
2017-07-22T18:46:39.967Z,98416.21
2017-07-22T18:49:10.147Z,98420.81
2017-07-22T18:51:40.120Z,98422.69
2017-07-22T18:54:08.981Z,98431.61
2017-07-22T18:56:38.667Z,98432.52
2017-07-22T18:59:12.865Z,98427.27
2017-07-22T19:01:43.429Z,98429.01
2017-07-22T19:04:12.877Z,98426.98
2017-07-22T19:06:42.352Z,98426.06
2017-07-22T19:09:12.232Z,98430.33
2017-07-22T19:11:41.678Z,98440.05
2017-07-22T19:14:11.470Z,98440.05
2017-07-22T19:16:41.980Z,98443.12
2017-07-22T19:19:11.401Z,98443.44
2017-07-22T19:21:41.544Z,98443.11
2017-07-22T19:24:11.106Z,98443.20
2017-07-22T19:26:40.782Z,98443.45
2017-07-22T19:29:10.438Z,98448.46
2017-07-22T19:31:40.043Z,98450.52
2017-07-22T19:34:09.708Z,98460.13
2017-07-22T19:36:39.543Z,98466.61
2017-07-22T19:39:09.355Z,98471.55
2017-07-22T19:41:38.914Z,98478.28
2017-07-22T19:44:08.880Z,98476.95
2017-07-22T19:46:38.929Z,98480.09
2017-07-22T19:49:09.450Z,98473.08
2017-07-22T19:51:39.575Z,98472.91
2017-07-22T19:54:09.072Z,98467.91
2017-07-22T19:56:39.086Z,98463.72
2017-07-22T19:59:08.696Z,98466.89
2017-07-22T20:01:39.119Z,98461.94
2017-07-22T20:04:08.563Z,98461.45
2017-07-22T20:06:39.125Z,98461.16
2017-07-22T20:09:08.845Z,98467.78
2017-07-22T20:11:39.063Z,98462.09
2017-07-22T20:14:08.803Z,98463.30
2017-07-22T20:16:39.002Z,98461.63
2017-07-22T20:19:08.699Z,98454.88
2017-07-22T20:21:38.412Z,98448.53
2017-07-22T20:24:08.182Z,98445.06
2017-07-22T20:26:39.404Z,98445.16
2017-07-22T20:29:09.427Z,98447.66
2017-07-22T20:31:39.411Z,98445.81
2017-07-22T20:34:09.069Z,98445.50
2017-07-22T20:36:39.547Z,98446.73
2017-07-22T20:39:09.279Z,98447.38
2017-07-22T20:41:38.742Z,98458.92
2017-07-22T20:44:08.595Z,98460.75
2017-07-22T20:46:38.615Z,98465.09
2017-07-22T20:49:08.045Z,98466.53
2017-07-22T20:51:38.306Z,98462.50
2017-07-22T20:54:08.358Z,98465.70
2017-07-22T20:56:38.307Z,98466.48
2017-07-22T20:59:08.005Z,98468.14
2017-07-22T21:01:38.091Z,98464.05
2017-07-22T21:04:08.021Z,98461.14
2017-07-22T21:06:38.450Z,98463.12
2017-07-22T21:09:08.711Z,98465.17
2017-07-22T21:11:38.336Z,98465.16
2017-07-22T21:14:08.074Z,98470.77
2017-07-22T21:16:37.546Z,98471.88
2017-07-22T21:19:09.254Z,98472.82
2017-07-22T21:21:39.412Z,98476.91
2017-07-22T21:24:09.661Z,98469.78
2017-07-22T21:26:39.529Z,98476.37
2017-07-22T21:29:09.607Z,98472.95
2017-07-22T21:31:39.435Z,98473.41
2017-07-22T21:34:09.619Z,98481.91
2017-07-22T21:36:40.090Z,98481.63
2017-07-22T21:39:10.312Z,98481.74
2017-07-22T21:41:40.129Z,98482.15
2017-07-22T21:44:09.811Z,98475.80
2017-07-22T21:46:39.958Z,98477.38
2017-07-22T21:49:09.961Z,98479.05
2017-07-22T21:51:39.887Z,98478.16
2017-07-22T21:54:09.534Z,98468.97
2017-07-22T21:56:40.146Z,98470.15
2017-07-22T21:59:09.889Z,98470.27
2017-07-22T22:01:39.626Z,98474.63
2017-07-22T22:04:09.217Z,98471.19
2017-07-22T22:06:38.811Z,98468.16
2017-07-22T22:09:08.688Z,98469.61
2017-07-22T22:11:38.253Z,98469.20
2017-07-22T22:14:07.695Z,98463.25
2017-07-22T22:16:37.199Z,98465.47
2017-07-22T22:19:06.728Z,98463.69
2017-07-22T22:21:36.183Z,98462.17
2017-07-22T22:24:05.636Z,98464.78
2017-07-22T22:26:35.093Z,98458.88
2017-07-22T22:29:04.557Z,98456.50
2017-07-22T22:31:34.025Z,98457.57
2017-07-22T22:34:03.456Z,98462.80
2017-07-22T22:36:32.831Z,98454.61
2017-07-22T22:39:02.261Z,98449.70
2017-07-22T22:41:32.189Z,98457.93
2017-07-22T22:44:01.633Z,98457.04
2017-07-22T22:46:31.071Z,98466.81
2017-07-22T22:49:00.589Z,98466.88
2017-07-22T22:51:30.735Z,98456.31
2017-07-22T22:54:00.158Z,98445.02
2017-07-22T22:56:29.601Z,98439.77
2017-07-22T22:58:59.048Z,98435.83
2017-07-22T23:01:28.506Z,98435.75
2017-07-22T23:03:57.937Z,98427.16
2017-07-22T23:06:28.229Z,98426.34
2017-07-22T23:08:57.669Z,98423.35
2017-07-22T23:11:27.113Z,98414.52
2017-07-22T23:13:56.389Z,98419.88
2017-07-22T23:16:25.839Z,98418.72
2017-07-22T23:18:55.347Z,98438.30
2017-07-22T23:21:24.785Z,98444.64
2017-07-22T23:23:54.230Z,98434.68
2017-07-22T23:26:23.697Z,98429.58
2017-07-22T23:28:53.142Z,98426.51
2017-07-22T23:31:22.716Z,98423.58
2017-07-22T23:33:52.151Z,98417.81
2017-07-22T23:36:21.606Z,98416.44
2017-07-22T23:38:51.056Z,98416.98
2017-07-22T23:41:20.519Z,98421.34
2017-07-22T23:43:49.957Z,98421.41
2017-07-22T23:46:19.413Z,98431.63
2017-07-22T23:48:48.841Z,98433.34
2017-07-22T23:51:18.328Z,98430.70
2017-07-22T23:53:47.773Z,98424.59
2017-07-22T23:56:17.302Z,98417.77
2017-07-22T23:58:46.740Z,98418.97
